Omerville, Canada
Current Conditions -  °F | °C
As of 4:00 AM on Friday 24 Oct 2014 (Local Time) from CYSC Reporting Station
NA  
Wind Chill: 36°   Ceiling: NA
Heat Index: 41°   Visibility: 9mi
Dew Point: 41°   Wind: 8mph
Humidity: 100%   Direction: 50°NE
Pressure: 29.8"   Gusts: NA
Location:  45.28°N, 72.12°W
Report Text: CYSC 240800Z AUTO 05007KT 360V060 9SM 05/05 A2980 RMK CLD MISG SLP098
Loading
Personal Weather Stations






























Interactive Weather Map
Tropical Storm Tracking
New forecast layout! Learn more

10-Day Weather Forecast

Advertisements
Track Severe Weather on mobile